Sandy Ridge, Pennsylvania
Current Conditions -  °F | °C
As of 4:54 AM on Sunday 21 Dec 2014 (Local Time) from KFIG Reporting Station
Overcast Overcast  
Wind Chill: 26°   Ceiling: 1900
Heat Index: 26°   Visibility: 10mi
Dew Point: 20°   Wind: 3mph
Humidity: 78%   Direction: 280°W
Pressure: 30.24"   Gusts: NA
Location:  40.81°N, 78.24°W
Report Text: KFIG 210954Z AUTO 28003KT 10SM OVC019 M03/M07 A3024 RMK AO2 SLP259 T10331067
Loading
Personal Weather Stations






























Interactive Weather Map New forecast layout! Learn more

10-Day Weather Forecast

Advertisements
Track Severe Weather on mobile